Pagrindinis puslapis
METAR-TAF:

METAR-TAF

Oro uostai :

Bušehras, Iranas

platuma: 28-59N, ilguma: 050-50E, Aukštis: 19 m

Dabartinis oras

Ataskaita buvo paskelbta 1 valandą ir 9 minutes, ne 02:00 UTC
Ramus vėjas
Temperatūra 29°C
Drėgmė 74%
Slėgis 998 hPa
Matomumas: 6000 m

METAR: OIBB 010200Z 00000KT 6000 NSC 29/24 Q0997 A2946

Laikas: 07:39 (03:09 UTC)

Prognozė

Ataskaita buvo paskelbta 1 valandą ir 9 minutes, ne 02:00 UTC
Prognozė galioja nuo 01 metu 03 UTC su 01 metu 12 UTC
Vėjas 8 kt iš Pietų/Pietryčių
Matomumas: 8000 m
Laikinai
nuo 01 metu 03 UTC su 01 metu 06 UTC
Matomumas: 5000 m
Laikinai
nuo 01 metu 08 UTC su 01 metu 12 UTC
Vėjas 18 kt iš Vakarų/Pietvakarių

TAF: OIBB 010200Z 0103/0112 16008KT 8000 NSC TEMPO 0103/0106 5000 HZ/BR TEMPO 0108/0112 25018KT

Orai ataskaitas ir orų prognozės (METAR, TAF).

turimą stotys yra geltonos ir raudonos taškus žemėlapyje.

Perkelti pele per norėdami pamatyti stoties vardą.

Tada spustelėkite, norėdami matyti oro stebėjimo ir prognozės.

Norėdami pakeisti žemėlapį: spustelėkite ant žalios mygtukų su juodo kryžiaus žemyn,; žalią mygtuką su brūkšneliu, jei norite nutolinti; arba žalių rodyklių gretimoms žemėlapius.


METAR-TAF: